createdAt,value
2018-09-25T00:00:57.896Z,1025.76
2018-09-25T00:02:07.581Z,1025.81
2018-09-25T00:03:16.754Z,1025.81
2018-09-25T00:04:26.703Z,1025.8
2018-09-25T00:05:36.647Z,1025.93
2018-09-25T00:06:46.319Z,1025.8
2018-09-25T00:07:56.004Z,1025.86
2018-09-25T00:09:05.947Z,1025.82
2018-09-25T00:10:15.921Z,1025.84
2018-09-25T00:11:26.365Z,1025.89
2018-09-25T00:12:36.304Z,1025.84
2018-09-25T00:13:46.000Z,1025.94
2018-09-25T00:14:55.681Z,1025.92
2018-09-25T00:16:05.613Z,1026
2018-09-25T00:17:15.581Z,1025.89
2018-09-25T00:18:25.513Z,1025.9
2018-09-25T00:19:35.456Z,1026.05
2018-09-25T00:20:44.906Z,1025.93
2018-09-25T00:21:54.848Z,1026.01
2018-09-25T00:23:05.022Z,1026
2018-09-25T00:24:14.970Z,1025.89
2018-09-25T00:25:24.663Z,1025.93
2018-09-25T00:26:34.610Z,1025.89
2018-09-25T00:27:44.566Z,1025.96
2018-09-25T00:28:54.262Z,1025.91
2018-09-25T00:30:04.215Z,1026.03
2018-09-25T00:31:13.905Z,1025.97
2018-09-25T00:32:23.856Z,1025.92
2018-09-25T00:33:33.808Z,1026.02
2018-09-25T00:34:43.506Z,1025.9
2018-09-25T00:35:53.454Z,1026
2018-09-25T00:37:03.393Z,1026.05
2018-09-25T00:38:13.334Z,1025.98
2018-09-25T00:39:23.272Z,1026.15
2018-09-25T00:40:33.214Z,1026.06
2018-09-25T00:41:43.172Z,1026.09
2018-09-25T00:42:53.116Z,1026.07
2018-09-25T00:44:03.041Z,1026.19
2018-09-25T00:45:12.478Z,1026.1
2018-09-25T00:46:22.488Z,1026.1
2018-09-25T00:47:32.414Z,1026.11
2018-09-25T00:48:42.367Z,1026.2
2018-09-25T00:49:52.314Z,1026.05
2018-09-25T00:51:02.009Z,1026.18
2018-09-25T00:52:11.965Z,1026.15
2018-09-25T00:53:21.657Z,1026.27
2018-09-25T00:54:31.608Z,1026.1
2018-09-25T00:55:41.554Z,1026.12
2018-09-25T00:56:51.506Z,1026.13
2018-09-25T00:58:01.230Z,1026.05
2018-09-25T00:59:11.185Z,1026.04
2018-09-25T01:00:20.872Z,1026.15
2018-09-25T01:01:30.552Z,1026.13
2018-09-25T01:02:40.498Z,1026.24
2018-09-25T01:03:50.458Z,1026.17
2018-09-25T01:05:00.395Z,1026.31
2018-09-25T01:06:10.334Z,1026.31
2018-09-25T01:07:20.273Z,1026.28
2018-09-25T01:08:29.953Z,1026.33
2018-09-25T01:09:39.885Z,1026.3
2018-09-25T01:10:49.595Z,1026.61
2018-09-25T01:11:59.540Z,1026.35
2018-09-25T01:13:09.480Z,1026.34
2018-09-25T01:14:19.429Z,1026.43
2018-09-25T01:15:29.132Z,1026.34
2018-09-25T01:16:39.067Z,1026.32
2018-09-25T01:17:49.020Z,1026.31
2018-09-25T01:18:58.977Z,1026.33
2018-09-25T01:20:08.503Z,1026.24
2018-09-25T01:21:18.447Z,1026.33
2018-09-25T01:22:28.397Z,1026.35
2018-09-25T01:23:38.373Z,1026.4
2018-09-25T01:24:48.320Z,1026.4
2018-09-25T01:25:58.271Z,1026.51
2018-09-25T01:27:08.220Z,1026.35
2018-09-25T01:28:18.159Z,1026.38
2018-09-25T01:29:28.090Z,1026.47
2018-09-25T01:30:37.779Z,1026.42
2018-09-25T01:31:47.725Z,1026.59
2018-09-25T01:32:57.654Z,1026.46
2018-09-25T01:34:07.595Z,1026.52
2018-09-25T01:35:17.259Z,1026.46
2018-09-25T01:36:27.195Z,1026.54
2018-09-25T01:37:36.871Z,1026.49
2018-09-25T01:38:46.814Z,1026.6
2018-09-25T01:39:56.762Z,1026.62
2018-09-25T01:41:06.691Z,1026.52
2018-09-25T01:42:16.641Z,1026.42
2018-09-25T01:43:26.327Z,1026.57
2018-09-25T01:44:36.273Z,1026.57
2018-09-25T01:45:46.210Z,1026.52
2018-09-25T01:46:56.159Z,1026.53
2018-09-25T01:48:06.105Z,1026.49
2018-09-25T01:49:15.785Z,1026.67
2018-09-25T01:50:25.732Z,1026.48
2018-09-25T01:51:35.679Z,1026.48
2018-09-25T01:52:45.618Z,1026.62
2018-09-25T01:53:55.565Z,1026.51
2018-09-25T01:55:05.529Z,1026.54
2018-09-25T01:56:15.465Z,1026.55
2018-09-25T01:57:25.139Z,1026.52
2018-09-25T01:58:35.084Z,1026.54
2018-09-25T01:59:45.015Z,1026.59
2018-09-25T02:00:54.958Z,1026.53
2018-09-25T02:02:04.939Z,1026.61
2018-09-25T02:03:14.623Z,1026.68
2018-09-25T02:04:24.544Z,1026.69
2018-09-25T02:05:34.226Z,1026.63
2018-09-25T02:06:43.436Z,1026.63
2018-09-25T02:07:53.375Z,1026.61
2018-09-25T02:09:03.333Z,1026.66
2018-09-25T02:10:13.279Z,1026.63
2018-09-25T02:11:23.219Z,1026.62
2018-09-25T02:12:33.183Z,1026.7
2018-09-25T02:13:43.139Z,1026.67
2018-09-25T02:14:53.074Z,1026.67
2018-09-25T02:16:02.503Z,1026.76
2018-09-25T02:17:12.185Z,1026.77
2018-09-25T02:18:21.861Z,1026.73
2018-09-25T02:19:31.804Z,1026.78
2018-09-25T02:20:41.479Z,1026.76
2018-09-25T02:21:51.169Z,1026.78
2018-09-25T02:23:01.117Z,1026.78
2018-09-25T02:24:11.080Z,1026.85
2018-09-25T02:25:21.037Z,1026.86
2018-09-25T02:26:30.978Z,1026.83
2018-09-25T02:27:40.947Z,1026.74
2018-09-25T02:28:50.382Z,1026.82
2018-09-25T02:30:00.042Z,1026.83
2018-09-25T02:31:09.991Z,1026.82
2018-09-25T02:32:19.688Z,1026.76
2018-09-25T02:33:29.123Z,1026.86
2018-09-25T02:34:38.295Z,1026.83
2018-09-25T02:35:47.985Z,1026.84
2018-09-25T02:36:57.924Z,1026.85
2018-09-25T02:38:07.868Z,1026.85
2018-09-25T02:39:17.549Z,1026.87
2018-09-25T02:40:27.493Z,1026.96
2018-09-25T02:41:37.457Z,1026.94
2018-09-25T02:42:47.402Z,1026.94
2018-09-25T02:43:57.357Z,1026.97
2018-09-25T02:45:07.322Z,1027.02
2018-09-25T02:46:17.304Z,1027.05
2018-09-25T02:47:27.246Z,1027.06
2018-09-25T02:48:37.198Z,1027.06
2018-09-25T02:49:46.890Z,1026.98
2018-09-25T02:50:56.615Z,1026.98
2018-09-25T02:52:06.310Z,1027.05
2018-09-25T02:53:16.009Z,1027.08
2018-09-25T02:54:25.956Z,1027.05
2018-09-25T02:55:35.906Z,1027.09
2018-09-25T02:56:45.344Z,1027.14
2018-09-25T02:57:55.289Z,1027.19
2018-09-25T02:59:05.267Z,1027.22
2018-09-25T03:00:15.220Z,1027.15
2018-09-25T03:01:24.908Z,1027.15
2018-09-25T03:02:34.851Z,1027.23
2018-09-25T03:03:44.804Z,1027.11
2018-09-25T03:04:54.521Z,1027.15
2018-09-25T03:06:04.470Z,1027.2
2018-09-25T03:07:14.418Z,1027.28
2018-09-25T03:08:24.352Z,1027.12
2018-09-25T03:09:34.060Z,1027.26
2018-09-25T03:10:44.003Z,1027.16
2018-09-25T03:11:53.955Z,1027.23
2018-09-25T03:13:03.911Z,1027.17
2018-09-25T03:14:13.848Z,1027.19
2018-09-25T03:15:23.818Z,1027.3
2018-09-25T03:16:33.765Z,1027.22
2018-09-25T03:17:43.450Z,1027.3
2018-09-25T03:18:53.383Z,1027.33
2018-09-25T03:20:03.340Z,1027.26
2018-09-25T03:21:13.030Z,1027.29
2018-09-25T03:22:22.969Z,1027.29
2018-09-25T03:23:32.675Z,1027.31
2018-09-25T03:24:42.811Z,1027.31
2018-09-25T03:25:52.766Z,1027.35
2018-09-25T03:27:02.724Z,1027.31
2018-09-25T03:28:12.690Z,1027.29
2018-09-25T03:29:22.649Z,1027.36
2018-09-25T03:30:32.598Z,1027.38
2018-09-25T03:31:42.544Z,1027.4
2018-09-25T03:32:52.520Z,1027.38
2018-09-25T03:34:02.453Z,1027.38
2018-09-25T03:35:12.396Z,1027.39
2018-09-25T03:36:22.081Z,1027.35
2018-09-25T03:37:32.026Z,1027.39
2018-09-25T03:38:41.969Z,1027.35
2018-09-25T03:39:51.655Z,1027.43
2018-09-25T03:41:01.086Z,1027.42
2018-09-25T03:42:11.037Z,1027.48
2018-09-25T03:43:20.989Z,1027.5
2018-09-25T03:44:30.940Z,1027.54
2018-09-25T03:45:40.631Z,1027.47
2018-09-25T03:46:50.315Z,1027.48
2018-09-25T03:48:00.261Z,1027.48
2018-09-25T03:49:10.202Z,1027.51
2018-09-25T03:50:19.627Z,1027.52
2018-09-25T03:51:29.568Z,1027.54
2018-09-25T03:52:39.508Z,1027.49
2018-09-25T03:53:49.201Z,1027.53
2018-09-25T03:54:59.150Z,1027.58
2018-09-25T03:56:08.824Z,1027.66
2018-09-25T03:57:18.509Z,1027.62
2018-09-25T03:58:28.451Z,1027.63
2018-09-25T03:59:38.157Z,1027.68
2018-09-25T04:00:48.589Z,1027.7
2018-09-25T04:01:58.590Z,1027.64
2018-09-25T04:03:08.009Z,1027.69
2018-09-25T04:04:17.969Z,1027.7
2018-09-25T04:05:27.931Z,1027.69
2018-09-25T04:06:37.892Z,1027.77
2018-09-25T04:07:47.851Z,1027.77
2018-09-25T04:08:57.293Z,1027.83
2018-09-25T04:10:07.251Z,1027.84
2018-09-25T04:11:17.222Z,1027.81
2018-09-25T04:12:27.174Z,1027.86
2018-09-25T04:13:37.142Z,1027.92
2018-09-25T04:14:46.846Z,1027.91
2018-09-25T04:15:56.789Z,1027.95
2018-09-25T04:17:06.745Z,1027.98
2018-09-25T04:18:16.433Z,1027.94
2018-09-25T04:19:26.377Z,1027.95
2018-09-25T04:20:36.326Z,1028.03
2018-09-25T04:21:46.025Z,1028.07
2018-09-25T04:22:55.969Z,1028.09
2018-09-25T04:24:05.903Z,1028.12
2018-09-25T04:25:15.843Z,1028.16
2018-09-25T04:26:25.801Z,1028.17
2018-09-25T04:27:35.755Z,1028.18
2018-09-25T04:28:45.452Z,1028.23
2018-09-25T04:29:55.439Z,1028.31
2018-09-25T04:31:04.866Z,1028.22
2018-09-25T04:32:14.798Z,1028.26
2018-09-25T04:33:24.496Z,1028.3
2018-09-25T04:34:34.455Z,1028.38
2018-09-25T04:35:44.142Z,1028.3
2018-09-25T04:36:54.081Z,1028.28
2018-09-25T04:38:04.147Z,1028.4
2018-09-25T04:39:14.093Z,1028.33
2018-09-25T04:40:23.799Z,1028.47
2018-09-25T04:41:33.742Z,1028.33
2018-09-25T04:42:43.680Z,1028.32
2018-09-25T04:43:53.376Z,1028.4
2018-09-25T04:45:03.327Z,1028.41
2018-09-25T04:46:13.270Z,1028.43
2018-09-25T04:47:22.961Z,1028.48
2018-09-25T04:48:32.903Z,1028.56
2018-09-25T04:49:42.846Z,1028.52
2018-09-25T04:50:52.790Z,1028.52
2018-09-25T04:52:02.502Z,1028.58
2018-09-25T04:53:12.192Z,1028.57
2018-09-25T04:54:22.150Z,1028.6
2018-09-25T04:55:32.300Z,1028.64
2018-09-25T04:56:42.240Z,1028.64
2018-09-25T04:57:52.187Z,1028.6
2018-09-25T04:59:02.155Z,1028.59
2018-09-25T05:00:12.113Z,1028.61
2018-09-25T05:01:22.054Z,1028.67
2018-09-25T05:02:32.079Z,1028.67
2018-09-25T05:03:42.020Z,1028.66
2018-09-25T05:04:51.966Z,1028.67
2018-09-25T05:06:01.902Z,1028.71
2018-09-25T05:07:11.331Z,1028.6
2018-09-25T05:08:21.280Z,1028.65
2018-09-25T05:09:31.244Z,1028.71
2018-09-25T05:10:40.921Z,1028.69
2018-09-25T05:11:50.864Z,1028.68
2018-09-25T05:13:00.891Z,1028.76
2018-09-25T05:14:10.839Z,1028.74
2018-09-25T05:15:20.795Z,1028.78
2018-09-25T05:16:30.232Z,1028.79
2018-09-25T05:17:40.161Z,1028.72
2018-09-25T05:18:49.860Z,1028.72
2018-09-25T05:19:59.815Z,1028.7
2018-09-25T05:21:09.768Z,1028.79
2018-09-25T05:22:19.724Z,1028.8
2018-09-25T05:23:29.701Z,1028.81
2018-09-25T05:24:39.925Z,1028.75
2018-09-25T05:25:49.833Z,1028.79
2018-09-25T05:26:59.786Z,1028.79
2018-09-25T05:28:09.477Z,1028.87
2018-09-25T05:29:19.149Z,1028.8
2018-09-25T05:30:29.105Z,1028.83
2018-09-25T05:31:38.793Z,1028.9
2018-09-25T05:32:48.752Z,1028.9
2018-09-25T05:33:58.440Z,1028.95
2018-09-25T05:35:08.380Z,1028.93
2018-09-25T05:36:18.067Z,1028.88
2018-09-25T05:37:28.022Z,1028.92
2018-09-25T05:38:37.973Z,1028.95
2018-09-25T05:39:47.914Z,1028.92
2018-09-25T05:40:57.918Z,1028.95
2018-09-25T05:42:08.262Z,1029.03
2018-09-25T05:43:17.961Z,1028.94
2018-09-25T05:44:27.896Z,1028.92
2018-09-25T05:45:37.857Z,1028.95
2018-09-25T05:46:47.541Z,1028.95
2018-09-25T05:47:57.282Z,1028.96
2018-09-25T05:49:06.935Z,1029.01
2018-09-25T05:50:16.294Z,1028.96
2018-09-25T05:51:25.743Z,1028.98
2018-09-25T05:52:35.446Z,1028.98
2018-09-25T05:53:45.399Z,1029.02
2018-09-25T05:54:55.344Z,1029.06
2018-09-25T05:56:05.044Z,1029.09
2018-09-25T05:57:14.742Z,1029.11
2018-09-25T05:58:24.708Z,1029.15
2018-09-25T05:59:34.666Z,1029.21
2018-09-25T06:00:44.652Z,1029.13
2018-09-25T06:01:54.723Z,1029.2
2018-09-25T06:03:04.714Z,1029.24
2018-09-25T06:04:14.703Z,1029.22
2018-09-25T06:05:24.652Z,1029.23
2018-09-25T06:06:34.614Z,1029.2
2018-09-25T06:07:44.569Z,1029.23
2018-09-25T06:08:54.516Z,1029.34
2018-09-25T06:10:04.467Z,1029.25
2018-09-25T06:11:14.422Z,1029.26
2018-09-25T06:12:24.375Z,1029.3
2018-09-25T06:13:34.362Z,1029.31
2018-09-25T06:14:44.350Z,1029.37
2018-09-25T06:15:54.325Z,1029.36
2018-09-25T06:17:04.301Z,1029.41
2018-09-25T06:18:14.248Z,1029.37
2018-09-25T06:19:23.962Z,1029.42
2018-09-25T06:20:33.921Z,1029.45
2018-09-25T06:21:43.618Z,1029.39
2018-09-25T06:22:53.591Z,1029.44
2018-09-25T06:24:03.932Z,1029.39
2018-09-25T06:25:13.904Z,1029.42
2018-09-25T06:26:23.863Z,1029.42
2018-09-25T06:27:33.594Z,1029.39
2018-09-25T06:28:43.626Z,1029.44
2018-09-25T06:29:54.102Z,1029.45
2018-09-25T06:31:04.062Z,1029.52
2018-09-25T06:32:14.034Z,1029.48
2018-09-25T06:33:23.733Z,1029.5
2018-09-25T06:34:33.706Z,1029.58
2018-09-25T06:35:44.038Z,1029.55
2018-09-25T06:36:53.991Z,1029.6
2018-09-25T06:38:03.960Z,1029.51
2018-09-25T06:39:13.647Z,1029.65
2018-09-25T06:40:23.610Z,1029.59
2018-09-25T06:41:33.588Z,1029.58
2018-09-25T06:42:43.300Z,1029.62
2018-09-25T06:43:53.248Z,1029.63
2018-09-25T06:45:02.995Z,1029.56
2018-09-25T06:46:12.958Z,1029.66
2018-09-25T06:47:23.307Z,1029.67
2018-09-25T06:48:33.278Z,1029.66
2018-09-25T06:49:43.238Z,1029.6
2018-09-25T06:50:52.662Z,1029.72
2018-09-25T06:52:02.342Z,1029.8
2018-09-25T06:53:12.046Z,1029.68
2018-09-25T06:54:21.988Z,1029.75
2018-09-25T06:55:31.949Z,1029.78
2018-09-25T06:56:41.915Z,1029.77
2018-09-25T06:57:51.866Z,1029.82
2018-09-25T06:59:01.825Z,1029.84
2018-09-25T07:00:11.793Z,1029.82
2018-09-25T07:01:21.495Z,1029.86
2018-09-25T07:02:31.454Z,1029.83
2018-09-25T07:03:41.463Z,1029.83
2018-09-25T07:04:51.419Z,1029.86
2018-09-25T07:06:01.357Z,1029.92
2018-09-25T07:07:11.322Z,1029.9
2018-09-25T07:08:21.019Z,1029.96
2018-09-25T07:09:30.969Z,1029.99
2018-09-25T07:10:41.171Z,1030.03
2018-09-25T07:11:51.354Z,1029.97
2018-09-25T07:13:01.060Z,1030.05
2018-09-25T07:14:10.734Z,1030.1
2018-09-25T07:15:20.420Z,1030.13
2018-09-25T07:16:30.370Z,1030.19
2018-09-25T07:17:40.356Z,1030.14
2018-09-25T07:18:50.598Z,1030.12
2018-09-25T07:20:00.574Z,1030.2
2018-09-25T07:21:10.049Z,1030.2
2018-09-25T07:22:20.003Z,1030.24
2018-09-25T07:23:29.963Z,1030.23
2018-09-25T07:24:39.744Z,1030.35
2018-09-25T07:25:50.343Z,1030.26
2018-09-25T07:27:00.031Z,1030.39
2018-09-25T07:28:09.975Z,1030.34
2018-09-25T07:29:19.659Z,1030.33
2018-09-25T07:30:29.678Z,1030.36
2018-09-25T07:31:39.635Z,1030.33
2018-09-25T07:32:49.590Z,1030.4
2018-09-25T07:33:59.548Z,1030.36
2018-09-25T07:35:09.233Z,1030.45
2018-09-25T07:36:19.189Z,1030.39
2018-09-25T07:37:29.128Z,1030.42
2018-09-25T07:38:39.075Z,1030.38
2018-09-25T07:39:48.543Z,1030.39
2018-09-25T07:40:58.313Z,1030.43
2018-09-25T07:42:08.020Z,1030.46
2018-09-25T07:43:17.719Z,1030.4
2018-09-25T07:44:27.406Z,1030.36
2018-09-25T07:45:36.865Z,1030.36
2018-09-25T07:46:46.315Z,1030.39
2018-09-25T07:47:56.264Z,1030.36
2018-09-25T07:49:06.411Z,1030.38
2018-09-25T07:50:16.381Z,1030.39
2018-09-25T07:51:26.083Z,1030.36
2018-09-25T07:52:36.030Z,1030.4
2018-09-25T07:53:45.979Z,1030.38
2018-09-25T07:54:55.656Z,1030.53
2018-09-25T07:56:05.350Z,1030.46
2018-09-25T07:57:15.348Z,1030.45
2018-09-25T07:58:25.292Z,1030.46
2018-09-25T07:59:35.254Z,1030.52
2018-09-25T08:00:45.216Z,1030.49
2018-09-25T08:01:55.153Z,1030.56
2018-09-25T08:03:05.160Z,1030.59
2018-09-25T08:04:15.620Z,1030.58
2018-09-25T08:05:25.593Z,1030.61
2018-09-25T08:06:35.541Z,1030.58
2018-09-25T08:07:45.490Z,1030.63
2018-09-25T08:08:55.265Z,1030.67
2018-09-25T08:10:05.238Z,1030.62
2018-09-25T08:11:15.188Z,1030.64
2018-09-25T08:12:25.183Z,1030.68
2018-09-25T08:13:34.884Z,1030.68
2018-09-25T08:14:44.842Z,1030.71
2018-09-25T08:15:54.288Z,1030.75
2018-09-25T08:17:04.251Z,1030.75
2018-09-25T08:18:14.198Z,1030.68
2018-09-25T08:19:24.166Z,1030.76
2018-09-25T08:20:34.136Z,1030.67
2018-09-25T08:21:43.845Z,1030.64
2018-09-25T08:22:53.552Z,1030.69
2018-09-25T08:24:03.512Z,1030.76
2018-09-25T08:25:13.490Z,1030.74
2018-09-25T08:26:23.219Z,1030.74
2018-09-25T08:27:32.939Z,1030.75
2018-09-25T08:28:42.642Z,1030.85
2018-09-25T08:29:52.591Z,1030.83
2018-09-25T08:31:02.317Z,1030.8
2018-09-25T08:32:12.418Z,1030.81
2018-09-25T08:33:21.896Z,1030.87
2018-09-25T08:34:31.884Z,1030.87
2018-09-25T08:35:41.859Z,1030.83
2018-09-25T08:36:51.835Z,1030.76
2018-09-25T08:38:01.793Z,1030.86
2018-09-25T08:39:11.596Z,1030.91
2018-09-25T08:40:21.899Z,1030.9
2018-09-25T08:41:31.864Z,1031.01
2018-09-25T08:42:41.562Z,1030.96
2018-09-25T08:43:51.263Z,1030.97
2018-09-25T08:45:01.214Z,1030.96
2018-09-25T08:46:10.925Z,1031.04
2018-09-25T08:47:20.882Z,1031.13
2018-09-25T08:48:30.838Z,1031.11
2018-09-25T08:49:40.801Z,1031.16
2018-09-25T08:50:50.763Z,1031.13
2018-09-25T08:52:00.713Z,1031.08
2018-09-25T08:53:10.684Z,1031.04
2018-09-25T08:54:20.655Z,1031.07
2018-09-25T08:55:30.644Z,1031.15
2018-09-25T08:56:40.621Z,1031.13
2018-09-25T08:57:50.609Z,1031.13
2018-09-25T08:59:00.567Z,1031.08
2018-09-25T09:00:10.536Z,1031.23
2018-09-25T09:01:20.495Z,1031.12
2018-09-25T09:02:30.298Z,1031.2
2018-09-25T09:03:40.000Z,1031.22
2018-09-25T09:04:49.985Z,1031.19
2018-09-25T09:05:59.490Z,1031.21
2018-09-25T09:07:09.576Z,1031.21
2018-09-25T09:08:19.977Z,1031.26
2018-09-25T09:09:30.374Z,1031.21
2018-09-25T09:10:40.258Z,1031.38
2018-09-25T09:11:50.018Z,1031.32
2018-09-25T09:12:59.818Z,1031.23
2018-09-25T09:14:09.802Z,1031.24
2018-09-25T09:15:19.822Z,1031.25
2018-09-25T09:16:29.789Z,1031.26
2018-09-25T09:17:39.753Z,1031.32
2018-09-25T09:18:49.896Z,1031.33
2018-09-25T09:19:59.882Z,1031.34
2018-09-25T09:21:10.455Z,1031.36
2018-09-25T09:22:20.452Z,1031.47
2018-09-25T09:23:30.471Z,1031.36
2018-09-25T09:24:39.921Z,1031.4
2018-09-25T09:25:49.635Z,1031.38
2018-09-25T09:26:59.099Z,1031.41
2018-09-25T09:28:09.152Z,1031.34
2018-09-25T09:29:19.122Z,1031.36
2018-09-25T09:30:29.112Z,1031.41
2018-09-25T09:31:38.798Z,1031.45
2018-09-25T09:32:48.502Z,1031.37
2018-09-25T09:33:58.196Z,1031.33
2018-09-25T09:35:07.661Z,1031.34
2018-09-25T09:36:17.379Z,1031.35
2018-09-25T09:37:27.076Z,1031.43
2018-09-25T09:38:37.025Z,1031.41
2018-09-25T09:39:47.000Z,1031.37
2018-09-25T09:40:57.038Z,1031.44
2018-09-25T09:42:07.299Z,1031.43
2018-09-25T09:43:17.306Z,1031.32
2018-09-25T09:44:27.270Z,1031.51
2018-09-25T09:45:36.981Z,1031.46
2018-09-25T09:46:46.943Z,1031.45
2018-09-25T09:47:56.648Z,1031.58
2018-09-25T09:49:06.616Z,1031.41
2018-09-25T09:50:16.585Z,1031.52
2018-09-25T09:51:26.803Z,1031.48
2018-09-25T09:52:36.760Z,1031.51
2018-09-25T09:53:46.713Z,1031.62
2018-09-25T09:54:56.161Z,1031.47
2018-09-25T09:56:06.132Z,1031.48
2018-09-25T09:57:16.193Z,1031.52
2018-09-25T09:58:25.894Z,1031.47
2018-09-25T09:59:35.616Z,1031.45
2018-09-25T10:00:45.316Z,1031.45
2018-09-25T10:01:55.303Z,1031.47
2018-09-25T10:03:05.276Z,1031.56
2018-09-25T10:04:14.991Z,1031.47
2018-09-25T10:05:24.456Z,1031.51
2018-09-25T10:06:34.434Z,1031.66
2018-09-25T10:07:44.335Z,1031.53
2018-09-25T10:08:54.310Z,1031.37
2018-09-25T10:10:04.027Z,1031.47
2018-09-25T10:11:13.730Z,1031.55
2018-09-25T10:12:23.723Z,1031.43
2018-09-25T10:13:33.979Z,1031.38
2018-09-25T10:14:43.944Z,1031.44
2018-09-25T10:15:53.905Z,1031.44
2018-09-25T10:17:03.876Z,1031.53
2018-09-25T10:18:13.570Z,1031.44
2018-09-25T10:19:23.543Z,1031.49
2018-09-25T10:20:33.513Z,1031.4
2018-09-25T10:21:43.483Z,1031.4
2018-09-25T10:22:53.198Z,1031.46
2018-09-25T10:24:03.155Z,1031.5
2018-09-25T10:25:13.140Z,1031.47
2018-09-25T10:26:23.111Z,1031.54
2018-09-25T10:27:33.074Z,1031.59
2018-09-25T10:28:43.048Z,1031.49
2018-09-25T10:29:53.015Z,1031.49
2018-09-25T10:31:02.993Z,1031.52
2018-09-25T10:32:12.950Z,1031.42
2018-09-25T10:33:22.896Z,1031.49
2018-09-25T10:34:32.915Z,1031.47
2018-09-25T10:35:42.912Z,1031.41
2018-09-25T10:36:52.626Z,1031.42
2018-09-25T10:38:02.576Z,1031.43
2018-09-25T10:39:12.027Z,1031.4
2018-09-25T10:40:21.719Z,1031.48
2018-09-25T10:41:31.692Z,1031.46
2018-09-25T10:42:41.429Z,1031.55
2018-09-25T10:43:51.129Z,1031.54
2018-09-25T10:45:01.081Z,1031.44
2018-09-25T10:46:11.037Z,1031.43
2018-09-25T10:47:20.736Z,1031.47
2018-09-25T10:48:30.445Z,1031.61
2018-09-25T10:49:40.163Z,1031.63
2018-09-25T10:50:49.993Z,1031.6
2018-09-25T10:51:59.958Z,1031.56
2018-09-25T10:53:09.663Z,1031.48
2018-09-25T10:54:19.354Z,1031.48
2018-09-25T10:55:29.350Z,1031.46
2018-09-25T10:56:39.612Z,1031.56
2018-09-25T10:57:49.579Z,1031.45
2018-09-25T10:58:59.531Z,1031.53
2018-09-25T11:00:09.240Z,1031.54
2018-09-25T11:01:19.361Z,1031.6
2018-09-25T11:02:29.325Z,1031.64
2018-09-25T11:03:39.356Z,1031.65
2018-09-25T11:04:49.312Z,1031.62
2018-09-25T11:05:59.017Z,1031.64
2018-09-25T11:07:08.720Z,1031.79
2018-09-25T11:08:18.433Z,1031.74
2018-09-25T11:09:28.138Z,1031.74
2018-09-25T11:10:37.846Z,1031.62
2018-09-25T11:11:47.805Z,1031.67
2018-09-25T11:12:57.558Z,1031.67
2018-09-25T11:14:07.519Z,1031.65
2018-09-25T11:15:17.206Z,1031.73
2018-09-25T11:16:26.899Z,1031.7
2018-09-25T11:17:36.886Z,1031.68
2018-09-25T11:18:47.310Z,1031.72
2018-09-25T11:19:57.006Z,1031.71
2018-09-25T11:21:06.973Z,1031.86
2018-09-25T11:22:16.942Z,1031.66
2018-09-25T11:23:26.906Z,1031.68
2018-09-25T11:24:36.878Z,1031.85
2018-09-25T11:25:46.336Z,1031.76
2018-09-25T11:26:56.053Z,1031.84
2018-09-25T11:28:06.230Z,1031.77
2018-09-25T11:29:16.191Z,1031.8
2018-09-25T11:30:26.194Z,1031.79
2018-09-25T11:31:36.175Z,1031.76
2018-09-25T11:32:46.135Z,1031.76
2018-09-25T11:33:55.839Z,1031.79
2018-09-25T11:35:05.302Z,1031.92
2018-09-25T11:36:15.174Z,1031.96
2018-09-25T11:37:25.140Z,1031.78
2018-09-25T11:38:35.100Z,1031.87
2018-09-25T11:39:45.060Z,1031.74
2018-09-25T11:40:55.317Z,1031.87
2018-09-25T11:42:05.993Z,1031.84
2018-09-25T11:43:15.688Z,1031.86
2018-09-25T11:44:25.674Z,1031.79
2018-09-25T11:45:35.625Z,1031.93
2018-09-25T11:46:45.658Z,1031.87
2018-09-25T11:47:56.500Z,1031.79
2018-09-25T11:49:06.472Z,1031.76
2018-09-25T11:50:16.471Z,1031.9
2018-09-25T11:51:26.428Z,1031.8
2018-09-25T11:52:36.388Z,1031.8
2018-09-25T11:53:46.508Z,1031.81
2018-09-25T11:54:56.493Z,1031.79
2018-09-25T11:56:06.454Z,1031.77
2018-09-25T11:57:16.228Z,1031.85
2018-09-25T11:58:26.248Z,1031.82
2018-09-25T11:59:36.122Z,1031.79
2018-09-25T12:00:46.092Z,1031.8
2018-09-25T12:01:56.046Z,1031.76
2018-09-25T12:03:05.913Z,1031.83
2018-09-25T12:04:15.385Z,1031.77
2018-09-25T12:05:25.382Z,1031.85
2018-09-25T12:06:35.335Z,1031.81
2018-09-25T12:07:45.296Z,1031.89
2018-09-25T12:08:55.287Z,1031.89
2018-09-25T12:10:05.006Z,1031.88
2018-09-25T12:11:14.460Z,1031.86
2018-09-25T12:12:24.418Z,1031.81
2018-09-25T12:13:33.925Z,1031.82
2018-09-25T12:14:43.892Z,1031.79
2018-09-25T12:15:53.365Z,1031.82
2018-09-25T12:17:03.073Z,1031.76
2018-09-25T12:18:12.789Z,1031.83
2018-09-25T12:19:22.756Z,1032
2018-09-25T12:20:32.741Z,1031.91
2018-09-25T12:21:42.758Z,1031.93
2018-09-25T12:22:52.719Z,1031.93
2018-09-25T12:24:02.421Z,1032.11
2018-09-25T12:25:12.139Z,1031.95
2018-09-25T12:26:22.114Z,1031.9
2018-09-25T12:27:32.107Z,1032.01
2018-09-25T12:28:42.074Z,1031.96
2018-09-25T12:29:52.053Z,1031.98
2018-09-25T12:31:02.021Z,1031.89
2018-09-25T12:32:11.990Z,1031.88
2018-09-25T12:33:21.956Z,1031.93
2018-09-25T12:34:31.654Z,1031.94
2018-09-25T12:35:41.392Z,1031.82
2018-09-25T12:36:51.351Z,1031.98
2018-09-25T12:38:01.062Z,1032.06
2018-09-25T12:39:11.080Z,1031.9
2018-09-25T12:40:21.041Z,1031.98
2018-09-25T12:41:30.768Z,1031.9
2018-09-25T12:42:40.747Z,1031.86
2018-09-25T12:43:50.700Z,1031.83
2018-09-25T12:45:00.680Z,1031.96
2018-09-25T12:46:10.655Z,1032.07
2018-09-25T12:47:20.362Z,1032
2018-09-25T12:48:30.336Z,1031.93
2018-09-25T12:49:40.324Z,1031.98
2018-09-25T12:50:50.330Z,1031.99
2018-09-25T12:51:59.777Z,1031.92
2018-09-25T12:53:09.752Z,1031.88
2018-09-25T12:54:19.467Z,1031.9
2018-09-25T12:55:29.464Z,1031.86
2018-09-25T12:56:39.437Z,1031.89
2018-09-25T12:57:49.132Z,1031.97
2018-09-25T12:58:59.086Z,1031.87
2018-09-25T13:00:08.782Z,1031.9
2018-09-25T13:01:18.491Z,1031.88
2018-09-25T13:02:28.496Z,1031.99
2018-09-25T13:03:37.935Z,1031.85
2018-09-25T13:04:47.964Z,1031.86
2018-09-25T13:05:57.498Z,1031.9
2018-09-25T13:07:06.968Z,1031.89
2018-09-25T13:08:16.941Z,1031.94
2018-09-25T13:09:26.684Z,1031.86
2018-09-25T13:10:36.603Z,1031.84
2018-09-25T13:11:46.581Z,1031.8
2018-09-25T13:12:56.038Z,1031.89
2018-09-25T13:14:05.741Z,1031.9
2018-09-25T13:15:15.719Z,1031.8
2018-09-25T13:16:25.679Z,1031.8
2018-09-25T13:17:35.661Z,1031.84
2018-09-25T13:18:45.612Z,1031.82
2018-09-25T13:19:55.330Z,1031.83
2018-09-25T13:21:05.274Z,1031.82
2018-09-25T13:22:15.255Z,1031.79
2018-09-25T13:23:24.685Z,1031.74
2018-09-25T13:24:34.400Z,1031.75
2018-09-25T13:25:44.348Z,1031.75
2018-09-25T13:26:54.054Z,1031.76
2018-09-25T13:28:03.755Z,1031.77
2018-09-25T13:29:13.719Z,1031.77
2018-09-25T13:30:23.419Z,1031.76
2018-09-25T13:31:33.388Z,1031.78
2018-09-25T13:32:43.337Z,1031.82
2018-09-25T13:33:53.072Z,1031.76
2018-09-25T13:35:03.026Z,1031.71
2018-09-25T13:36:12.725Z,1031.75
2018-09-25T13:37:22.675Z,1031.72
2018-09-25T13:38:32.678Z,1031.74
2018-09-25T13:39:42.385Z,1031.7
2018-09-25T13:40:52.080Z,1031.68
2018-09-25T13:42:01.512Z,1031.74
2018-09-25T13:43:11.232Z,1031.72
2018-09-25T13:44:21.196Z,1031.67
2018-09-25T13:45:31.164Z,1031.69
2018-09-25T13:46:41.143Z,1031.73
2018-09-25T13:47:51.106Z,1031.74
2018-09-25T13:49:01.078Z,1031.77
2018-09-25T13:50:11.035Z,1031.68
2018-09-25T13:51:20.735Z,1031.65
2018-09-25T13:52:30.690Z,1031.6
2018-09-25T13:53:40.646Z,1031.59
2018-09-25T13:54:50.595Z,1031.59
2018-09-25T13:56:00.610Z,1031.59
2018-09-25T13:57:11.069Z,1031.59
2018-09-25T13:58:20.769Z,1031.67
2018-09-25T13:59:30.760Z,1031.67
2018-09-25T14:00:40.743Z,1031.66
2018-09-25T14:01:50.706Z,1031.64
2018-09-25T14:03:00.408Z,1031.68
2018-09-25T14:04:10.116Z,1031.67
2018-09-25T14:05:20.095Z,1031.65
2018-09-25T14:06:30.060Z,1031.64
2018-09-25T14:07:40.017Z,1031.63
2018-09-25T14:08:49.964Z,1031.66